Time;durP1;ratioP1;P1;durP2;ratioP2;P2;SDS_P1;SDS_P2;PMS_P1;PMS_P2;Temp;Humidity;BMP_temperature;BMP_pressure;BME280_temperature;BME280_humidity;BME280_pressure;Samples;Min_cycle;Max_cycle;Signal;HPM_P1;HPM_P2
2021/01/18 00:01:31;;;;;;;24.05;15.73;;;;;;;0.03;87.65;96164.19;4953246;28;20078;-40
2021/01/18 00:03:58;;;;;;;21.73;14.00;;;;;;;0.06;87.88;96166.34;4955747;28;20047;-40
2021/01/18 00:06:25;;;;;;;22.00;14.05;;;;;;;0.32;86.72;96170.72;4970436;28;20137;-42
2021/01/18 00:08:51;;;;;;;20.38;14.40;;;;;;;0.37;86.41;96170.75;4953234;28;20482;-41
2021/01/18 00:11:20;;;;;;;20.63;13.73;;;;;;;0.34;86.39;96168.59;4953151;28;20466;-43
2021/01/18 00:13:49;;;;;;;19.58;13.13;;;;;;;0.40;86.38;96164.91;4953381;28;20057;-41
2021/01/18 00:16:18;;;;;;;17.45;11.65;;;;;;;0.48;85.45;96166.25;4958523;28;20089;-42
2021/01/18 00:18:45;;;;;;;17.45;12.30;;;;;;;0.36;85.56;96155.03;4971176;28;20059;-42
2021/01/18 00:21:12;;;;;;;19.02;12.15;;;;;;;0.37;85.64;96160.09;4953450;29;20154;-41
2021/01/18 00:23:39;;;;;;;17.60;11.55;;;;;;;0.43;85.63;96171.56;4953201;28;20420;-44
2021/01/18 00:26:13;;;;;;;17.13;10.95;;;;;;;0.35;85.81;96177.38;4952726;28;20133;-42
2021/01/18 00:28:41;;;;;;;12.77;9.50;;;;;;;0.24;85.77;96163.25;4953190;28;20117;-44
2021/01/18 00:31:08;;;;;;;12.93;9.82;;;;;;;0.25;86.14;96182.66;4953052;28;20130;-42
2021/01/18 00:33:36;;;;;;;13.18;9.43;;;;;;;0.39;85.66;96181.94;4952919;28;20051;-43
2021/01/18 00:36:04;;;;;;;13.63;10.13;;;;;;;0.44;85.48;96175.81;4952906;28;20078;-42
2021/01/18 00:38:33;;;;;;;12.23;9.50;;;;;;;0.45;85.42;96182.72;4952882;28;20059;-42
2021/01/18 00:40:59;;;;;;;14.82;10.40;;;;;;;0.39;85.70;96181.94;4953245;28;20126;-43
2021/01/18 00:43:25;;;;;;;13.32;9.80;;;;;;;0.45;85.39;96180.06;4953060;28;20055;-41
2021/01/18 00:45:52;;;;;;;14.45;9.35;;;;;;;0.52;85.00;96180.66;4965402;28;20070;-41
2021/01/18 00:48:19;;;;;;;10.82;8.55;;;;;;;0.62;84.41;96178.00;4976398;28;20109;-40
2021/01/18 00:50:45;;;;;;;11.05;7.93;;;;;;;0.50;84.25;96169.44;4958242;28;20059;-41
2021/01/18 00:53:11;;;;;;;12.38;9.02;;;;;;;0.62;84.34;96180.66;4956757;28;20043;-42
2021/01/18 00:55:42;;;;;;;11.32;8.15;;;;;;;0.62;84.35;96183.34;4955086;29;20078;-41
2021/01/18 00:58:24;;;;;;;12.27;8.80;;;;;;;0.66;84.01;96181.75;4942280;28;20051;-41
2021/01/18 01:01:09;;;;;;;10.90;8.63;;;;;;;0.83;83.06;96186.03;4955559;29;20051;-41
2021/01/18 01:03:36;;;;;;;12.10;8.85;;;;;;;0.57;84.29;96185.97;4955534;29;20066;-41
2021/01/18 01:06:03;;;;;;;11.90;8.02;;;;;;;0.67;84.07;96193.97;4975322;28;20491;-41
2021/01/18 01:08:29;;;;;;;13.20;8.93;;;;;;;0.56;84.19;96189.72;4971605;28;20054;-42
2021/01/18 01:10:56;;;;;;;12.93;8.20;;;;;;;0.47;84.70;96188.59;4975775;28;20106;-42
2021/01/18 01:13:22;;;;;;;10.13;7.20;;;;;;;0.47;84.42;96199.25;4976053;28;20138;-43
2021/01/18 01:15:48;;;;;;;12.32;7.15;;;;;;;0.50;84.21;96197.94;4963484;28;20141;-42
2021/01/18 01:18:15;;;;;;;10.05;7.32;;;;;;;0.41;84.38;96201.09;4956281;28;20196;-41
2021/01/18 01:20:41;;;;;;;11.13;7.80;;;;;;;0.36;84.65;96187.78;4973054;28;20534;-41
2021/01/18 01:23:07;;;;;;;10.48;6.75;;;;;;;0.58;83.75;96203.53;4975649;28;20061;-42
2021/01/18 01:25:34;;;;;;;8.70;5.85;;;;;;;0.48;84.04;96206.16;4975311;28;20060;-43
2021/01/18 01:28:00;;;;;;;10.68;6.78;;;;;;;0.55;83.89;96205.94;4971051;28;20259;-41
2021/01/18 01:30:26;;;;;;;8.93;6.47;;;;;;;0.61;83.34;96199.56;4956171;28;20097;-41
2021/01/18 01:32:54;;;;;;;9.73;6.50;;;;;;;0.58;83.66;96206.19;4956040;28;20055;-41
2021/01/18 01:35:24;;;;;;;9.75;6.55;;;;;;;0.65;83.26;96209.44;4956141;28;20130;-43
2021/01/18 01:37:51;;;;;;;11.23;7.40;;;;;;;0.59;83.74;96207.03;4962387;28;20051;-42
2021/01/18 01:40:18;;;;;;;9.18;6.45;;;;;;;0.66;83.17;96204.91;4975382;28;20054;-41
2021/01/18 01:42:45;;;;;;;9.27;6.30;;;;;;;0.62;83.67;96217.94;4975329;28;20057;-42
2021/01/18 01:45:14;;;;;;;12.68;6.95;;;;;;;0.51;83.88;96197.66;4974446;28;20060;-42
2021/01/18 01:47:52;;;;;;;10.25;7.20;;;;;;;0.65;83.21;96193.47;4955723;28;20049;-43
2021/01/18 01:50:26;;;;;;;10.18;6.38;;;;;;;0.78;82.86;96207.31;4956396;28;20100;-42
2021/01/18 01:53:03;;;;;;;10.75;7.18;;;;;;;0.64;83.58;96209.69;4955900;28;20047;-43
2021/01/18 01:55:31;;;;;;;9.05;6.78;;;;;;;0.72;83.31;96211.84;4955514;28;20083;-42
2021/01/18 01:58:00;;;;;;;9.65;6.10;;;;;;;0.77;82.97;96214.50;4955648;28;20141;-43
2021/01/18 02:00:37;;;;;;;13.30;7.68;;;;;;;0.72;83.06;96216.38;4974218;28;20405;-42
2021/01/18 02:03:04;;;;;;;9.80;7.05;;;;;;;0.80;82.85;96218.53;4974897;28;20055;-43
2021/01/18 02:05:30;;;;;;;9.25;6.50;;;;;;;0.71;83.29;96212.91;4975528;28;20051;-43
2021/01/18 02:08:01;;;;;;;10.85;7.25;;;;;;;0.67;83.55;96201.19;4958305;28;20584;-48
2021/01/18 02:10:28;;;;;;;9.23;6.55;;;;;;;0.67;83.43;96203.84;4955959;28;20069;-42
2021/01/18 02:12:58;;;;;;;9.75;7.05;;;;;;;0.81;83.01;96209.47;4955463;28;20051;-43
2021/01/18 02:15:41;;;;;;;10.50;7.22;;;;;;;0.92;82.93;96201.22;4964340;28;20134;-42
2021/01/18 02:18:29;;;;;;;10.18;6.55;;;;;;;0.73;82.99;96202.00;4974733;28;20089;-42
2021/01/18 02:21:32;;;;;;;9.93;6.88;;;;;;;0.73;83.57;96202.00;4955805;28;20137;-42
2021/01/18 02:24:17;;;;;;;11.38;8.05;;;;;;;0.72;83.62;96200.41;4955154;28;20110;-42
2021/01/18 02:27:02;;;;;;;11.63;7.03;;;;;;;0.79;82.83;96215.06;4954955;28;20560;-42
2021/01/18 02:30:07;;;;;;;10.20;6.95;;;;;;;0.89;82.77;96200.97;4955182;28;20051;-42
2021/01/18 02:32:55;;;;;;;10.30;7.25;;;;;;;0.86;82.88;96207.63;4955146;28;20133;-42
2021/01/18 02:35:52;;;;;;;11.07;7.15;;;;;;;1.02;82.44;96203.13;4955173;28;20067;-42
2021/01/18 02:38:40;;;;;;;11.68;8.02;;;;;;;0.85;82.94;96206.03;4953640;29;20148;-43
2021/01/18 02:41:39;;;;;;;12.13;8.18;;;;;;;0.74;83.58;96214.25;4955234;28;20094;-44
2021/01/18 02:44:09;;;;;;;10.40;6.43;;;;;;;0.79;83.10;96211.59;4965510;28;20047;-42
2021/01/18 02:46:37;;;;;;;14.18;7.70;;;;;;;0.82;83.03;96211.88;4974485;28;20047;-41
2021/01/18 02:49:05;;;;;;;11.35;7.40;;;;;;;0.90;82.73;96213.22;4972272;28;20098;-42
2021/01/18 02:51:38;;;;;;;10.85;8.13;;;;;;;0.92;82.65;96217.22;4954728;29;20121;-45
2021/01/18 02:54:04;;;;;;;;;;;;;;;0.96;82.64;96217.50;4956278;28;20134;-42
2021/01/18 02:56:33;;;;;;;12.40;7.50;;;;;;;0.85;82.77;96206.03;4957533;28;19989;-42
2021/01/18 02:59:01;;;;;;;11.88;8.25;;;;;;;0.79;82.81;96208.94;4975171;28;20047;-46
2021/01/18 03:01:37;;;;;;;10.90;7.63;;;;;;;0.89;83.11;96208.97;4973871;28;20051;-42
2021/01/18 03:04:18;;;;;;;10.38;7.50;;;;;;;0.69;83.41;96225.69;4974725;28;20261;-43
2021/01/18 03:06:58;;;;;;;10.65;7.25;;;;;;;0.70;83.64;96219.28;4959086;28;20131;-42
2021/01/18 03:09:31;;;;;;;11.93;8.57;;;;;;;0.72;83.43;96227.03;4954329;28;20118;-42
2021/01/18 03:12:04;;;;;;;10.80;8.10;;;;;;;0.65;83.63;96227.25;4954413;28;20055;-47
2021/01/18 03:14:38;;;;;;;11.88;7.88;;;;;;;0.55;83.83;96224.56;4954078;28;20057;-43
2021/01/18 03:17:05;;;;;;;11.98;8.05;;;;;;;0.59;84.07;96220.34;4953827;28;20051;-44
2021/01/18 03:19:44;;;;;;;14.10;8.30;;;;;;;0.69;83.31;96223.81;4953952;28;20054;-42
2021/01/18 03:22:21;;;;;;;11.77;8.15;;;;;;;0.70;83.18;96217.44;4954173;28;20067;-43
2021/01/18 03:24:51;;;;;;;11.55;7.40;;;;;;;0.71;82.96;96226.22;4954096;28;20466;-42
2021/01/18 03:27:18;;;;;;;11.73;7.40;;;;;;;0.58;83.38;96227.50;4954004;28;20075;-41
2021/01/18 03:29:45;;;;;;;10.27;6.68;;;;;;;0.61;83.34;96220.84;4954298;28;20058;-43
2021/01/18 03:32:11;;;;;;;12.68;7.93;;;;;;;0.64;83.01;96220.34;4952885;29;20051;-42
2021/01/18 03:34:38;;;;;;;11.82;8.27;;;;;;;0.77;82.85;96221.72;4954059;28;20115;-43
2021/01/18 03:37:04;;;;;;;11.60;7.75;;;;;;;0.76;82.58;96215.59;4953844;28;20075;-42
2021/01/18 03:39:31;;;;;;;11.25;7.20;;;;;;;0.77;82.74;96216.38;4954376;28;20095;-43
2021/01/18 03:41:57;;;;;;;11.05;7.97;;;;;;;0.68;82.80;96227.56;4953814;28;20497;-44
2021/01/18 03:44:24;;;;;;;11.27;7.45;;;;;;;0.67;83.05;96219.81;4953944;28;20110;-42
2021/01/18 03:46:54;;;;;;;11.15;6.82;;;;;;;0.66;82.58;96235.00;4953479;28;20509;-42
2021/01/18 03:49:20;;;;;;;9.35;6.40;;;;;;;0.57;82.71;96225.91;4955256;28;20051;-42
2021/01/18 03:51:47;;;;;;;10.95;6.63;;;;;;;0.64;82.68;96221.13;4953571;28;20079;-42
2021/01/18 03:54:13;;;;;;;9.95;6.47;;;;;;;0.74;82.25;96230.22;4953793;28;20130;-42
2021/01/18 03:56:40;;;;;;;13.70;7.78;;;;;;;0.83;82.08;96226.00;4954243;28;20047;-44
2021/01/18 03:59:07;;;;;;;11.90;7.30;;;;;;;0.83;82.11;96220.66;4954244;28;20134;-43
2021/01/18 04:01:39;;;;;;;12.63;7.97;;;;;;;0.81;81.73;96230.78;4953904;28;20082;-45
2021/01/18 04:04:06;;;;;;;13.30;6.75;;;;;;;0.80;81.68;96229.19;4957510;28;20346;-42
2021/01/18 04:06:39;;;;;;;14.13;7.63;;;;;;;0.77;81.82;96224.38;4968327;28;20410;-42
2021/01/18 04:09:05;;;;;;;11.10;7.18;;;;;;;0.80;82.00;96224.66;4953681;28;20106;-43
2021/01/18 04:11:32;;;;;;;12.27;6.80;;;;;;;0.90;81.67;96237.19;4953374;28;20055;-43
2021/01/18 04:13:59;;;;;;;11.60;7.35;;;;;;;0.92;81.82;96240.41;4953313;28;20414;-43
2021/01/18 04:16:26;;;;;;;10.95;6.60;;;;;;;0.73;82.28;96237.41;4952298;28;20138;-43
2021/01/18 04:18:52;;;;;;;12.00;7.43;;;;;;;0.79;82.30;96243.56;4965275;28;20169;-44
2021/01/18 04:21:19;;;;;;;11.80;7.50;;;;;;;0.64;82.30;96234.44;4971865;28;20137;-43
2021/01/18 04:23:45;;;;;;;12.73;7.30;;;;;;;0.70;82.26;96230.75;4973382;28;20141;-42
2021/01/18 04:26:12;;;;;;;11.13;7.43;;;;;;;0.74;82.06;96240.88;4972570;28;20055;-42
2021/01/18 04:28:39;;;;;;;11.93;6.85;;;;;;;0.71;81.85;96234.19;4953556;28;20093;-45
2021/01/18 04:31:06;;;;;;;9.95;6.15;;;;;;;0.78;81.56;96237.44;4953231;28;20051;-41
2021/01/18 04:33:32;;;;;;;12.10;7.40;;;;;;;0.78;82.16;96239.28;4953199;28;20051;-43
2021/01/18 04:35:59;;;;;;;11.90;6.82;;;;;;;0.70;82.06;96233.41;4966401;28;20142;-44
2021/01/18 04:38:26;;;;;;;12.70;6.70;;;;;;;0.63;82.16;96240.84;4972514;28;20129;-42
2021/01/18 04:40:52;;;;;;;12.40;7.78;;;;;;;0.64;82.50;96236.31;4972611;28;20137;-42
2021/01/18 04:43:18;;;;;;;14.48;7.82;;;;;;;0.73;82.29;96239.28;4972401;28;20509;-42
2021/01/18 04:45:48;;;;;;;14.10;8.38;;;;;;;0.57;82.83;96255.19;4969067;28;20110;-41
2021/01/18 04:48:15;;;;;;;12.70;7.60;;;;;;;0.75;82.31;96240.63;4956056;28;20098;-42
2021/01/18 04:50:41;;;;;;;13.63;8.20;;;;;;;0.80;82.15;96237.16;4953243;28;20066;-42
2021/01/18 04:53:13;;;;;;;15.57;8.20;;;;;;;0.81;82.01;96241.41;4953178;28;20256;-45
2021/01/18 04:55:39;;;;;;;15.27;8.90;;;;;;;0.76;82.37;96233.44;4952684;28;20079;-44
2021/01/18 04:58:10;;;;;;;16.95;8.52;;;;;;;0.64;82.54;96226.47;4955925;28;20085;-42
2021/01/18 05:00:39;;;;;;;13.68;7.47;;;;;;;0.63;82.41;96237.38;4972372;28;20089;-41
2021/01/18 05:03:07;;;;;;;17.10;9.00;;;;;;;0.67;83.18;96233.94;4972025;28;20521;-43
2021/01/18 05:05:51;;;;;;;15.57;8.75;;;;;;;0.56;83.65;96236.84;4970634;28;20062;-43
2021/01/18 05:08:43;;;;;;;16.20;8.10;;;;;;;0.51;83.92;96237.59;4953041;28;20055;-45
2021/01/18 05:11:14;;;;;;;14.25;7.90;;;;;;;0.37;84.89;96245.25;4952935;28;20483;-42
2021/01/18 05:13:41;;;;;;;14.57;7.93;;;;;;;0.40;85.20;96252.72;4952736;28;20047;-41
2021/01/18 05:16:08;;;;;;;14.82;8.60;;;;;;;0.29;85.69;96250.28;4952568;28;20148;-42
2021/01/18 05:18:36;;;;;;;18.83;9.75;;;;;;;0.21;86.55;96255.03;4952798;28;20055;-44
2021/01/18 05:21:04;;;;;;;15.43;9.18;;;;;;;0.29;86.51;96242.28;4953369;28;20079;-41
2021/01/18 05:23:31;;;;;;;18.88;9.68;;;;;;;0.27;86.50;96257.72;4953494;28;20186;-43
2021/01/18 05:26:21;;;;;;;15.88;9.43;;;;;;;0.31;86.13;96258.81;4952900;28;20070;-42
2021/01/18 05:28:49;;;;;;;16.42;8.40;;;;;;;0.34;85.48;96258.28;4953247;28;20857;-42
2021/01/18 05:31:32;;;;;;;20.50;9.65;;;;;;;0.31;85.87;96253.47;4954993;28;20052;-42
2021/01/18 05:34:00;;;;;;;14.82;8.23;;;;;;;0.30;84.88;96270.53;4955364;29;20058;-42
2021/01/18 05:36:46;;;;;;;14.75;7.97;;;;;;;0.37;84.61;96263.09;4956150;28;20618;-42
2021/01/18 05:39:20;;;;;;;16.27;8.70;;;;;;;0.48;84.08;96262.06;4956672;28;20133;-42
2021/01/18 05:41:48;;;;;;;12.40;7.32;;;;;;;0.52;83.56;96265.84;4958939;28;20051;-42
2021/01/18 05:44:15;;;;;;;17.65;8.07;;;;;;;0.49;83.31;96258.38;4962184;28;20051;-41
2021/01/18 05:46:44;;;;;;;14.60;7.97;;;;;;;0.55;83.52;96280.47;4965055;28;20106;-42
2021/01/18 05:49:14;;;;;;;14.13;7.97;;;;;;;0.49;83.52;96274.34;4971555;28;20051;-41
2021/01/18 05:51:48;;;;;;;15.65;7.72;;;;;;;0.57;83.10;96265.84;4956390;28;20499;-41
2021/01/18 05:54:21;;;;;;;14.90;8.45;;;;;;;0.54;82.99;96263.69;4956081;28;20134;-42
2021/01/18 05:56:47;;;;;;;15.57;8.75;;;;;;;0.62;82.88;96265.88;4955590;28;20489;-42
2021/01/18 05:59:18;;;;;;;15.63;8.15;;;;;;;0.77;82.15;96272.31;4956358;28;20110;-45
2021/01/18 06:01:47;;;;;;;13.43;8.05;;;;;;;0.70;81.99;96262.69;4955525;28;20134;-41
2021/01/18 06:04:19;;;;;;;13.20;7.60;;;;;;;0.62;82.55;96273.06;4960345;28;20453;-43
2021/01/18 06:07:20;;;;;;;17.83;8.85;;;;;;;0.65;82.42;96275.19;4966415;28;20131;-42
2021/01/18 06:09:50;;;;;;;20.77;9.23;;;;;;;0.83;82.03;96281.94;4955305;28;20066;-44
2021/01/18 06:12:20;;;;;;;17.10;8.77;;;;;;;0.81;82.11;96274.19;4954355;29;20437;-44
2021/01/18 06:15:12;;;;;;;13.88;7.45;;;;;;;0.67;82.17;96275.75;4955508;28;20572;-43
2021/01/18 06:17:51;;;;;;;12.75;8.13;;;;;;;0.79;82.80;96281.66;4955281;28;20477;-44
2021/01/18 06:20:22;;;;;;;14.95;8.27;;;;;;;0.72;82.06;96278.44;4954534;28;20055;-42
2021/01/18 06:22:55;;;;;;;16.38;7.70;;;;;;;0.66;82.23;96282.13;4955707;28;20059;-42
2021/01/18 06:25:24;;;;;;;12.48;6.95;;;;;;;0.62;82.32;96332.44;4956787;29;20085;-43
2021/01/18 06:27:50;;;;;;;13.60;7.53;;;;;;;0.72;81.93;96283.75;4958465;28;20109;-42
2021/01/18 06:30:22;;;;;;;14.32;7.93;;;;;;;0.84;81.67;96286.19;4968849;28;20504;-42
2021/01/18 06:32:56;;;;;;;13.20;7.47;;;;;;;0.81;81.77;96297.34;4974075;28;20138;-43
2021/01/18 06:35:33;;;;;;;12.75;7.60;;;;;;;0.63;82.42;96291.44;4973437;28;20055;-42
2021/01/18 06:38:03;;;;;;;13.07;7.28;;;;;;;0.70;82.17;96297.31;4976304;28;20589;-43
2021/01/18 06:40:40;;;;;;;15.18;7.85;;;;;;;0.74;82.38;96294.94;4976608;28;20484;-45
2021/01/18 06:43:09;;;;;;;14.45;8.48;;;;;;;0.77;82.06;96286.44;4976049;28;20388;-43
2021/01/18 06:45:38;;;;;;;13.88;8.45;;;;;;;0.74;81.97;96294.13;4962706;28;20062;-41
2021/01/18 06:48:07;;;;;;;17.35;8.38;;;;;;;0.77;81.71;96291.75;4974892;28;20047;-42
2021/01/18 06:50:36;;;;;;;11.05;6.78;;;;;;;0.87;81.37;96296.31;4976280;28;20055;-43
2021/01/18 06:53:25;;;;;;;14.10;8.43;;;;;;;1.02;81.13;96293.72;4977111;28;20109;-43
2021/01/18 06:56:13;;;;;;;14.82;8.43;;;;;;;1.17;80.46;96303.63;4976818;28;20138;-42
2021/01/18 06:58:45;;;;;;;13.55;7.93;;;;;;;0.81;81.36;96313.34;4976546;28;20050;-43
2021/01/18 07:01:14;;;;;;;13.57;7.75;;;;;;;0.72;82.31;96302.41;4977138;28;20054;-42
2021/01/18 07:03:43;;;;;;;12.50;7.88;;;;;;;0.88;81.38;96311.25;5005516;23;20043;-45
2021/01/18 07:06:32;;;;;;;13.43;8.05;;;;;;;0.81;81.94;96310.66;4993433;28;20058;-43
2021/01/18 07:09:01;;;;;;;15.52;8.65;;;;;;;0.88;81.88;96327.25;4993516;28;20054;-43
2021/01/18 07:11:44;;;;;;;14.68;7.32;;;;;;;0.73;82.15;96332.50;4987429;28;20133;-50
2021/01/18 07:14:13;;;;;;;15.30;8.65;;;;;;;0.68;82.29;96333.25;4992116;28;20081;-44
2021/01/18 07:16:41;;;;;;;12.40;7.25;;;;;;;0.74;82.22;96328.75;4992798;28;20066;-45
2021/01/18 07:19:09;;;;;;;13.50;7.72;;;;;;;0.58;82.94;96328.69;4988660;28;20050;-47
2021/01/18 07:21:48;;;;;;;13.00;8.73;;;;;;;0.53;83.34;96339.31;4992632;28;20462;-44
2021/01/18 07:24:30;;;;;;;14.57;8.07;;;;;;;0.72;82.80;96347.69;4991896;28;20607;-47
2021/01/18 07:27:26;;;;;;;14.13;7.72;;;;;;;0.78;82.62;96351.97;4993277;28;20070;-46
2021/01/18 07:29:53;;;;;;;13.75;8.73;;;;;;;0.72;83.23;96341.56;4989937;28;20714;-44
2021/01/18 07:32:21;;;;;;;15.20;8.57;;;;;;;0.64;83.87;96353.47;4991692;28;20128;-44
2021/01/18 07:34:47;;;;;;;13.60;8.40;;;;;;;0.49;84.55;96345.41;4993254;28;20065;-43
2021/01/18 07:37:14;;;;;;;16.13;9.57;;;;;;;0.35;85.59;96350.38;4992732;28;20052;-46
2021/01/18 07:39:42;;;;;;;15.52;8.15;;;;;;;0.49;85.20;96366.69;4974128;28;20047;-49
2021/01/18 07:42:27;;;;;;;13.18;7.75;;;;;;;0.44;85.40;96368.28;4973712;28;20070;-44
2021/01/18 07:45:12;;;;;;;15.57;8.70;;;;;;;0.48;85.22;96371.22;4973259;28;20074;-44
2021/01/18 07:47:56;;;;;;;16.63;8.52;;;;;;;0.51;85.14;96367.25;4991194;28;20057;-49
2021/01/18 07:51:20;;;;;;;14.85;8.48;;;;;;;0.62;84.63;96376.91;4973262;28;20389;-45
2021/01/18 07:53:47;;;;;;;15.05;7.75;;;;;;;0.56;84.03;96362.78;4972172;28;20129;-45
2021/01/18 07:56:31;;;;;;;13.82;7.72;;;;;;;0.60;84.10;96374.50;4973036;28;20468;-47
2021/01/18 07:58:57;;;;;;;;;;;;;;;0.58;84.24;96371.28;4974134;28;20138;-46
2021/01/18 08:01:27;;;;;;;15.07;7.80;;;;;;;0.50;83.99;96365.66;4972906;28;20350;-44
2021/01/18 08:04:20;;;;;;;16.15;9.38;;;;;;;0.74;83.94;96382.03;4972983;28;20508;-45
2021/01/18 08:07:08;;;;;;;11.37;6.03;;;;;;;0.77;83.13;96389.50;4982696;28;20101;-43
2021/01/18 08:09:36;;;;;;;12.13;6.72;;;;;;;0.67;83.34;96388.38;4992688;28;20120;-44
2021/01/18 08:12:28;;;;;;;11.55;7.25;;;;;;;0.87;82.48;96392.22;4992239;28;20112;-46
2021/01/18 08:14:55;;;;;;;14.65;7.70;;;;;;;0.84;82.47;96395.41;4992494;28;20059;-45
2021/01/18 08:17:22;;;;;;;13.60;7.50;;;;;;;0.80;82.91;96404.97;4990018;28;20047;-46
2021/01/18 08:20:16;;;;;;;15.43;6.40;;;;;;;0.70;82.46;96409.16;4992083;28;20054;-45
2021/01/18 08:22:43;;;;;;;17.25;7.13;;;;;;;0.72;82.45;96413.47;4992518;28;20419;-46
2021/01/18 08:25:09;;;;;;;13.27;7.15;;;;;;;0.79;82.23;96412.16;4992754;28;20535;-49
2021/01/18 08:27:54;;;;;;;14.05;7.72;;;;;;;0.74;82.29;96411.31;4992304;28;20054;-44
2021/01/18 08:30:29;;;;;;;13.65;7.40;;;;;;;0.70;82.75;96417.16;4977749;28;20574;-46
2021/01/18 08:32:56;;;;;;;14.85;6.80;;;;;;;0.78;82.06;96415.91;4978898;28;20046;-44
2021/01/18 08:35:28;;;;;;;13.30;7.30;;;;;;;0.66;82.98;96405.44;4992623;28;20050;-44
2021/01/18 08:38:08;;;;;;;11.88;7.13;;;;;;;0.68;82.82;96421.13;4975793;28;20512;-44
2021/01/18 08:40:40;;;;;;;13.05;7.43;;;;;;;0.57;82.92;96425.59;4980631;28;20146;-43
2021/01/18 08:43:07;;;;;;;13.82;6.57;;;;;;;0.56;82.73;96425.88;4984295;28;20047;-44
2021/01/18 08:45:36;;;;;;;13.93;6.57;;;;;;;0.66;82.48;96432.06;4982549;28;20460;-43
2021/01/18 08:48:05;;;;;;;12.35;6.95;;;;;;;0.69;82.83;96425.41;4982886;28;20554;-43
2021/01/18 08:50:41;;;;;;;17.45;9.80;;;;;;;0.81;82.37;96433.19;4981733;28;20715;-42
2021/01/18 08:53:26;;;;;;;10.80;6.18;;;;;;;0.75;82.06;96432.38;4980509;28;20129;-42
2021/01/18 08:55:54;;;;;;;13.60;6.35;;;;;;;0.66;82.39;96434.72;4979443;28;20515;-44
2021/01/18 08:58:41;;;;;;;14.25;6.88;;;;;;;0.77;82.75;96448.09;4983695;28;20137;-42
2021/01/18 09:01:13;;;;;;;17.23;6.93;;;;;;;0.64;82.74;96436.81;4980429;28;20057;-41
2021/01/18 09:03:41;;;;;;;15.57;7.70;;;;;;;0.57;82.88;96444.25;4978614;28;20217;-42
2021/01/18 09:06:07;;;;;;;12.38;6.07;;;;;;;0.49;83.26;96447.41;4982347;28;20051;-44
2021/01/18 09:08:34;;;;;;;13.60;6.97;;;;;;;0.53;83.13;96448.47;4981496;28;20038;-43
2021/01/18 09:11:05;;;;;;;12.40;6.85;;;;;;;0.55;82.98;96443.69;4987619;28;20125;-44
2021/01/18 09:13:34;;;;;;;11.95;6.47;;;;;;;0.63;83.06;96453.88;4984710;28;20058;-44
2021/01/18 09:16:04;;;;;;;11.05;6.47;;;;;;;0.58;83.28;96440.50;4983020;28;20059;-42
2021/01/18 09:18:33;;;;;;;14.02;7.05;;;;;;;0.71;82.16;96441.94;4987600;28;20046;-44
2021/01/18 09:21:01;;;;;;;14.43;7.60;;;;;;;0.74;82.90;96453.94;4990352;28;20046;-44
2021/01/18 09:23:28;;;;;;;14.98;5.85;;;;;;;0.69;81.92;96452.84;4994727;28;20054;-43
2021/01/18 09:26:10;;;;;;;10.20;6.05;;;;;;;0.56;82.82;96452.50;4986152;28;20054;-44
2021/01/18 09:28:41;;;;;;;13.53;5.77;;;;;;;0.50;82.22;96448.19;4987605;28;20046;-42
2021/01/18 09:31:10;;;;;;;12.75;5.70;;;;;;;0.60;82.38;96453.59;4988181;28;20055;-43
2021/01/18 09:33:36;;;;;;;11.35;6.22;;;;;;;0.73;82.04;96458.47;4984651;28;20485;-43
2021/01/18 09:36:04;;;;;;;10.88;5.05;;;;;;;0.56;81.82;96455.97;4985660;28;20060;-43
2021/01/18 09:38:30;;;;;;;10.77;5.82;;;;;;;0.58;82.36;96456.47;4987939;28;20129;-43
2021/01/18 09:40:57;;;;;;;12.90;7.07;;;;;;;0.68;81.37;96461.09;4978712;28;20050;-43
2021/01/18 09:43:26;;;;;;;11.45;6.22;;;;;;;0.90;80.66;96453.78;4983420;28;20054;-43
2021/01/18 09:45:54;;;;;;;9.18;5.35;;;;;;;1.00;80.22;96458.34;4987782;28;20106;-44
2021/01/18 09:48:25;;;;;;;14.10;5.88;;;;;;;0.68;81.42;96467.25;4988908;28;20547;-42
2021/01/18 09:50:58;;;;;;;11.57;4.97;;;;;;;1.00;79.16;96470.88;4998310;28;20177;-46
2021/01/18 09:53:26;;;;;;;11.77;5.65;;;;;;;0.89;79.53;96454.84;4985005;28;20535;-44
2021/01/18 09:55:55;;;;;;;9.45;5.07;;;;;;;0.87;79.12;96448.16;4987956;28;20046;-44
2021/01/18 09:58:36;;;;;;;10.88;5.72;;;;;;;0.96;79.63;96456.47;4984857;28;20046;-46
2021/01/18 10:01:17;;;;;;;11.32;5.30;;;;;;;1.04;79.28;96456.81;4980875;28;20058;-46
2021/01/18 10:03:56;;;;;;;8.57;4.45;;;;;;;1.27;78.23;96458.25;4983143;28;20053;-45
2021/01/18 10:06:31;;;;;;;10.82;4.75;;;;;;;1.38;77.31;96451.09;4982299;28;20050;-45
2021/01/18 10:09:06;;;;;;;10.10;5.40;;;;;;;1.09;77.67;96456.81;4985492;28;20055;-46
2021/01/18 10:11:47;;;;;;;11.15;4.60;;;;;;;0.76;79.40;96451.84;4982130;28;20057;-44
2021/01/18 10:14:22;;;;;;;11.23;4.43;;;;;;;0.89;79.85;96459.38;4983255;28;20050;-42
2021/01/18 10:17:00;;;;;;;7.93;4.57;;;;;;;1.01;78.05;96454.66;4989640;28;20054;-46
2021/01/18 10:19:27;;;;;;;10.52;4.35;;;;;;;1.17;77.51;96447.53;4985038;28;20442;-45
2021/01/18 10:21:55;;;;;;;8.73;4.65;;;;;;;1.22;77.23;96460.06;4992402;28;20507;-43
2021/01/18 10:24:29;;;;;;;11.93;4.63;;;;;;;1.03;78.23;96449.84;4982910;28;20081;-42
2021/01/18 10:27:13;;;;;;;9.93;4.57;;;;;;;1.20;77.25;96462.97;4984707;28;20484;-42
2021/01/18 10:29:43;;;;;;;12.02;5.15;;;;;;;1.10;78.23;96461.06;4985450;28;20046;-44
2021/01/18 10:32:10;;;;;;;9.60;5.68;;;;;;;1.19;77.02;96457.94;4982781;28;20051;-42
2021/01/18 10:34:37;;;;;;;12.15;4.85;;;;;;;1.06;77.41;96446.66;4983784;28;20061;-43
2021/01/18 10:37:19;;;;;;;8.65;4.82;;;;;;;1.16;77.16;96460.03;4988897;28;20046;-43
2021/01/18 10:39:47;;;;;;;7.60;4.28;;;;;;;1.13;77.04;96460.56;4980883;28;20065;-42
2021/01/18 10:42:19;;;;;;;8.73;4.55;;;;;;;1.23;76.10;96449.16;4982184;28;20053;-43
2021/01/18 10:44:52;;;;;;;10.43;4.00;;;;;;;1.23;75.98;96451.81;4984142;28;20539;-43
2021/01/18 10:47:26;;;;;;;8.35;4.05;;;;;;;1.44;74.66;96447.38;4987937;28;20062;-44
2021/01/18 10:49:55;;;;;;;9.85;4.35;;;;;;;1.44;74.67;96458.03;4985214;28;20133;-43
2021/01/18 10:52:39;;;;;;;7.70;4.10;;;;;;;1.33;75.53;96457.22;4981824;28;20054;-43
2021/01/18 10:55:06;;;;;;;;;;;;;;;1.36;74.87;96451.31;4984532;28;20077;-43
2021/01/18 10:57:45;;;;;;;6.80;3.90;;;;;;;1.14;75.76;96450.72;4975137;28;19928;-43
2021/01/18 11:00:22;;;;;;;9.23;4.00;;;;;;;1.17;75.86;96452.88;4983395;28;20056;-44
2021/01/18 11:02:53;;;;;;;11.60;4.40;;;;;;;1.06;76.45;96457.31;4987666;28;20057;-44
2021/01/18 11:05:26;;;;;;;10.63;4.90;;;;;;;0.88;78.26;96449.78;4982090;28;20489;-43
2021/01/18 11:07:52;;;;;;;;;;;;;;;0.83;78.54;96453.19;4983605;28;20515;-45
2021/01/18 11:10:23;;;;;;;8.75;4.53;;;;;;;0.82;79.51;96450.81;4983199;28;19921;-43
2021/01/18 11:13:06;;;;;;;8.13;4.72;;;;;;;0.62;80.05;96452.28;4979340;28;20042;-43
2021/01/18 11:15:36;;;;;;;6.88;3.42;;;;;;;0.57;79.25;96446.09;4989392;28;20073;-44
2021/01/18 11:18:04;;;;;;;12.40;4.78;;;;;;;0.73;79.78;96441.69;4982859;28;20058;-45
2021/01/18 11:20:31;;;;;;;7.68;4.10;;;;;;;0.84;79.08;96444.13;4979568;28;20047;-42
2021/01/18 11:22:58;;;;;;;11.88;4.57;;;;;;;0.83;79.31;96441.75;4984102;28;20043;-43
2021/01/18 11:25:26;;;;;;;8.50;4.70;;;;;;;0.87;78.66;96442.81;4993993;28;20085;-43
2021/01/18 11:27:52;;;;;;;9.75;5.07;;;;;;;0.91;79.17;96449.25;4982421;28;20077;-44
2021/01/18 11:30:19;;;;;;;11.48;4.97;;;;;;;0.93;79.33;96439.94;4978290;28;20113;-44
2021/01/18 11:32:46;;;;;;;9.63;4.65;;;;;;;1.21;77.59;96434.50;4984324;28;20057;-44
2021/01/18 11:35:13;;;;;;;10.25;5.10;;;;;;;1.21;76.79;96435.28;4981552;28;20058;-43
2021/01/18 11:37:40;;;;;;;9.10;4.57;;;;;;;1.14;77.55;96432.88;4983493;28;20061;-43
2021/01/18 11:40:10;;;;;;;7.97;4.65;;;;;;;1.20;77.09;96427.53;4979983;28;20073;-44
2021/01/18 11:42:37;;;;;;;8.68;4.88;;;;;;;1.41;76.44;96434.56;4983605;28;20086;-44
2021/01/18 11:45:06;;;;;;;7.07;4.53;;;;;;;1.32;76.59;96430.78;4978651;28;20102;-45
2021/01/18 11:47:39;;;;;;;8.05;4.10;;;;;;;1.53;75.17;96429.81;4988510;28;20046;-44
2021/01/18 11:50:08;;;;;;;7.82;4.07;;;;;;;1.50;76.87;96417.00;4984500;28;20052;-43
2021/01/18 11:52:49;;;;;;;7.43;3.92;;;;;;;1.54;73.59;96412.75;4982724;28;20112;-43
2021/01/18 11:55:17;;;;;;;7.97;3.72;;;;;;;1.48;73.79;96413.00;4988493;28;20134;-42
2021/01/18 11:57:47;;;;;;;10.65;4.43;;;;;;;1.50;73.75;96416.22;4980253;28;20543;-43
2021/01/18 12:00:35;;;;;;;7.50;3.60;;;;;;;1.59;71.74;96407.44;4980788;28;20101;-42